Terminal Aerodrome Forecast
Issued by NWS

Home | Current Version | Previous Version | Text Only | Print | Product List | Glossary On
Versions: 1 2 3 4 5 6 7 8 9 10 11 12 13 14 15 16 17 18 19 20 21 22 23 24 25
000
FTUS45 KGJT 300531
TAFDRO
TAF
KDRO 300531Z 3006/3106 10004KT P6SM -RA BKN020 OVC035
      TEMPO 3006/3009 P6SM NSW SCT020 BKN035
     FM300900 05003KT 5SM -RA BR SCT015 BKN025 OVC040
     FM301400 10005KT 3SM -RASN BR BKN015
     FM301800 VRB03KT 5SM -RA BR OVC015
     FM310100 07002KT 2SM -RASN BR OVC015=

USA.gov is the U.S. government's official web portal to all federal, state and local government web resources and services.